Time;durP1;ratioP1;P1;durP2;ratioP2;P2;SDS_P1;SDS_P2;PMS_P1;PMS_P2;Temp;Humidity;BMP_temperature;BMP_pressure;BME280_temperature;BME280_humidity;BME280_pressure;Samples;Min_cycle;Max_cycle;Signal;HPM_P1;HPM_P2
2021/07/20 00:00:32;;;;;;;10.10;4.90;;;;;;;12.97;77.15;101903.72;5088254;28;20479;-81
2021/07/20 00:03:02;;;;;;;6.88;4.70;;;;;;;12.89;77.31;101906.75;5080886;28;20114;-83
2021/07/20 00:05:29;;;;;;;8.40;5.00;;;;;;;12.84;77.39;101913.88;5106098;28;20095;-83
2021/07/20 00:07:58;;;;;;;12.00;5.63;;;;;;;12.75;77.74;101905.38;5085475;28;20024;-83
2021/07/20 00:10:32;;;;;;;9.63;4.47;;;;;;;12.69;77.87;101911.66;5086850;28;20028;-83
2021/07/20 00:12:59;;;;;;;8.32;4.45;;;;;;;12.64;77.76;101909.69;5084657;28;20020;-83
2021/07/20 00:15:25;;;;;;;9.90;5.57;;;;;;;12.55;77.82;101904.88;5104722;28;20027;-82
2021/07/20 00:17:54;;;;;;;11.57;5.32;;;;;;;12.53;77.81;101905.09;5091159;28;20180;-83
2021/07/20 00:20:21;;;;;;;9.57;5.30;;;;;;;12.49;78.07;101905.81;5085394;28;20019;-82
2021/07/20 00:22:48;;;;;;;9.52;6.00;;;;;;;12.45;78.16;101904.66;5102868;28;20033;-83
2021/07/20 00:25:14;;;;;;;8.90;5.07;;;;;;;12.40;78.49;101898.09;5088426;28;20118;-83
2021/07/20 00:27:40;;;;;;;9.95;5.68;;;;;;;12.36;78.64;101891.53;5084366;28;20031;-83
2021/07/20 00:30:07;;;;;;;14.27;6.90;;;;;;;12.32;78.69;101901.13;5091461;28;20038;-83
2021/07/20 00:32:33;;;;;;;10.23;5.55;;;;;;;12.30;79.19;101903.22;5092325;28;20028;-82
2021/07/20 00:34:59;;;;;;;11.35;5.50;;;;;;;12.25;79.26;101894.22;5087381;28;20071;-83
2021/07/20 00:37:24;;;;;;;7.78;5.20;;;;;;;12.23;79.46;101897.13;5101067;28;20016;-83
2021/07/20 00:39:50;;;;;;;9.98;6.35;;;;;;;12.18;79.04;101897.00;5105594;28;20534;-83
2021/07/20 00:42:15;;;;;;;9.00;5.80;;;;;;;12.16;79.80;101896.41;5089853;28;20027;-83
2021/07/20 00:44:41;;;;;;;11.02;5.65;;;;;;;12.18;79.78;101902.38;5085493;28;20027;-83
2021/07/20 00:47:07;;;;;;;11.63;5.82;;;;;;;12.17;79.73;101899.91;5096950;28;20481;-83
2021/07/20 00:49:32;;;;;;;9.98;5.82;;;;;;;12.09;80.02;101906.44;5090967;28;20672;-83
2021/07/20 00:51:58;;;;;;;9.68;5.88;;;;;;;12.06;79.77;101909.59;5093509;28;20076;-83
2021/07/20 00:54:24;;;;;;;9.82;5.57;;;;;;;12.00;80.20;101903.25;5090746;28;20051;-82
2021/07/20 00:56:51;;;;;;;11.38;6.20;;;;;;;11.96;80.15;101906.63;5099413;28;20043;-83
2021/07/20 00:59:17;;;;;;;13.43;6.78;;;;;;;11.90;80.48;101902.19;5104513;28;20015;-83
2021/07/20 01:01:43;;;;;;;10.00;6.43;;;;;;;11.89;80.65;101904.06;5090061;28;20068;-82
2021/07/20 01:04:09;;;;;;;10.57;5.70;;;;;;;11.89;80.42;101903.25;5091948;28;20101;-83
2021/07/20 01:06:36;;;;;;;10.40;5.63;;;;;;;11.89;80.56;101898.69;5086354;28;20027;-83
2021/07/20 01:09:03;;;;;;;9.93;5.40;;;;;;;11.86;80.77;101898.31;5083387;28;20027;-83
2021/07/20 01:11:32;;;;;;;7.88;5.22;;;;;;;11.83;80.86;101904.13;5087560;28;20027;-83
2021/07/20 01:13:58;;;;;;;7.75;5.20;;;;;;;11.78;81.25;101900.25;5082641;28;20059;-83
2021/07/20 01:16:24;;;;;;;8.82;5.68;;;;;;;11.77;80.94;101906.66;5090899;28;20129;-82
2021/07/20 01:18:51;;;;;;;10.40;5.85;;;;;;;11.74;81.36;101901.75;5106375;28;22177;-83
2021/07/20 01:21:17;;;;;;;13.63;6.97;;;;;;;11.68;81.77;101899.16;5090395;28;20016;-83
2021/07/20 01:23:45;;;;;;;10.45;5.75;;;;;;;11.62;81.46;101895.50;5088181;28;20031;-83
2021/07/20 01:26:12;;;;;;;8.88;5.43;;;;;;;11.56;81.46;101899.09;5085230;28;20035;-83
2021/07/20 01:28:41;;;;;;;8.63;5.43;;;;;;;11.54;81.66;101900.38;5084539;28;20016;-83
2021/07/20 01:31:11;;;;;;;8.48;6.13;;;;;;;11.49;81.89;101893.81;5079064;28;20027;-83
2021/07/20 01:33:41;;;;;;;15.25;6.80;;;;;;;11.44;82.23;101900.91;5085239;28;20024;-83
2021/07/20 01:36:07;;;;;;;9.80;6.03;;;;;;;11.45;82.49;101902.53;5089222;28;20110;-83
2021/07/20 01:38:34;;;;;;;11.00;6.35;;;;;;;11.41;82.13;101899.47;5084880;28;20028;-83
2021/07/20 01:41:06;;;;;;;9.48;5.65;;;;;;;11.42;81.80;101894.94;5103674;28;20043;-82
2021/07/20 01:43:34;;;;;;;10.13;6.03;;;;;;;11.38;81.72;101896.44;5084587;28;20114;-83
2021/07/20 01:46:01;;;;;;;12.45;7.00;;;;;;;11.40;81.44;101892.47;5090242;28;20023;-83
2021/07/20 01:48:32;;;;;;;14.95;6.85;;;;;;;11.37;81.90;101886.75;5101266;28;20020;-82
2021/07/20 01:50:59;;;;;;;9.30;5.95;;;;;;;11.35;82.19;101888.84;5084704;28;20030;-83
2021/07/20 01:53:25;;;;;;;10.48;5.95;;;;;;;11.31;82.17;101887.63;5090240;28;20084;-82
2021/07/20 01:55:50;;;;;;;11.68;5.80;;;;;;;11.26;82.09;101891.00;5102843;28;20027;-83
2021/07/20 01:58:16;;;;;;;16.73;5.85;;;;;;;11.20;82.01;101890.03;5103657;28;20031;-83
2021/07/20 02:00:42;;;;;;;15.93;6.13;;;;;;;11.15;81.88;101884.53;5090102;28;20019;-83
2021/07/20 02:08:30;;;;;;;9.57;5.80;;;;;;;11.05;81.90;101891.44;5101035;28;20101;-82
2021/07/20 02:11:03;;;;;;;10.65;5.80;;;;;;;10.99;81.91;101895.84;5099237;28;20020;-83
2021/07/20 02:13:39;;;;;;;10.32;5.85;;;;;;;10.99;82.34;101889.66;5084865;28;20028;-83
2021/07/20 02:16:05;;;;;;;12.13;6.82;;;;;;;10.95;82.54;101894.66;5083101;28;20162;-82
2021/07/20 02:18:31;;;;;;;14.50;6.88;;;;;;;10.85;82.79;101887.13;5083458;28;20035;-83
2021/07/20 02:21:01;;;;;;;14.15;7.28;;;;;;;10.84;82.95;101892.72;5086256;28;20023;-82
2021/07/20 02:23:31;;;;;;;15.18;7.18;;;;;;;10.83;83.10;101889.22;5100074;28;20038;-83
2021/07/20 02:25:57;;;;;;;11.02;7.22;;;;;;;10.83;83.40;101886.53;5083086;28;20032;-83
2021/07/20 02:28:24;;;;;;;12.07;6.43;;;;;;;10.85;83.51;101888.97;5086266;28;20027;-83
2021/07/20 02:30:51;;;;;;;17.83;7.15;;;;;;;10.88;83.67;101886.66;5084271;28;20043;-83
2021/07/20 02:33:19;;;;;;;17.35;6.90;;;;;;;10.92;83.77;101891.59;5086475;28;20664;-83
2021/07/20 02:35:46;;;;;;;11.48;6.05;;;;;;;10.92;83.88;101891.59;5086961;28;20389;-83
2021/07/20 02:38:12;;;;;;;10.50;6.22;;;;;;;10.87;84.04;101889.56;5088212;28;20023;-83
2021/07/20 02:40:39;;;;;;;10.98;6.25;;;;;;;10.89;84.13;101898.22;5084177;28;20027;-83
2021/07/20 02:43:04;;;;;;;8.13;5.30;;;;;;;10.81;84.75;101887.78;5086207;28;20035;-82
2021/07/20 02:45:34;;;;;;;11.15;6.00;;;;;;;10.76;84.91;101896.47;5097480;28;20112;-82
2021/07/20 02:47:59;;;;;;;9.52;6.40;;;;;;;10.72;84.79;101897.97;5085942;28;20032;-83
2021/07/20 02:50:26;;;;;;;11.98;5.65;;;;;;;10.68;84.76;101894.09;5084528;28;20031;-83
2021/07/20 02:52:53;;;;;;;9.45;5.70;;;;;;;10.68;84.45;101901.31;5083409;28;20027;-83
2021/07/20 02:55:19;;;;;;;11.82;5.00;;;;;;;10.65;84.52;101899.91;5088538;28;20027;-83
2021/07/20 02:57:49;;;;;;;8.38;5.45;;;;;;;10.59;84.19;101898.94;5075271;28;20534;-83
2021/07/20 03:00:16;;;;;;;11.30;5.85;;;;;;;10.54;85.09;101904.09;5086127;28;20015;-83
2021/07/20 03:02:45;;;;;;;12.98;6.13;;;;;;;10.51;85.93;101906.41;5079474;28;20039;-82
2021/07/20 03:05:12;;;;;;;9.68;6.20;;;;;;;10.54;86.27;101903.28;5086707;28;20076;-81
2021/07/20 03:07:40;;;;;;;14.35;6.07;;;;;;;10.56;85.41;101893.97;5101751;28;20046;-82
2021/07/20 03:10:08;;;;;;;14.48;5.95;;;;;;;10.57;85.27;101900.97;5088721;28;20470;-82
2021/07/20 03:12:35;;;;;;;8.75;5.20;;;;;;;10.57;84.98;101892.94;5086578;28;20378;-83
2021/07/20 03:15:01;;;;;;;9.27;5.47;;;;;;;10.58;84.78;101899.94;5098144;28;20057;-83
2021/07/20 03:17:28;;;;;;;7.57;5.30;;;;;;;10.62;84.40;101903.03;5083724;28;20118;-82
2021/07/20 03:19:56;;;;;;;16.13;5.20;;;;;;;10.58;84.49;101899.94;5080134;28;20023;-83
2021/07/20 03:22:28;;;;;;;9.02;5.30;;;;;;;10.62;84.33;101899.53;5082499;28;20035;-83
2021/07/20 03:24:55;;;;;;;9.07;5.35;;;;;;;10.63;84.51;101899.31;5082165;28;20027;-83
2021/07/20 03:27:22;;;;;;;11.55;5.43;;;;;;;10.63;84.49;101893.13;5085790;28;20551;-83
2021/07/20 03:29:49;;;;;;;9.07;5.55;;;;;;;10.62;84.67;101895.00;5088904;28;20065;-83
2021/07/20 03:32:16;;;;;;;8.00;5.05;;;;;;;10.63;84.44;101887.75;5085437;28;20024;-83
2021/07/20 03:34:44;;;;;;;9.73;5.22;;;;;;;10.61;84.39;101895.22;5088561;28;20030;-83
2021/07/20 03:37:11;;;;;;;13.05;5.30;;;;;;;10.63;84.50;101890.44;5098059;28;20464;-83
2021/07/20 03:39:38;;;;;;;10.13;5.90;;;;;;;10.64;84.12;101894.75;5100520;28;20020;-83
2021/07/20 03:42:05;;;;;;;7.25;4.95;;;;;;;10.62;84.04;101895.00;5080496;28;20078;-83
2021/07/20 03:44:32;;;;;;;7.53;5.25;;;;;;;10.63;84.24;101891.25;5087199;28;20028;-83
2021/07/20 03:46:58;;;;;;;10.98;6.03;;;;;;;10.66;84.14;101890.00;5104865;28;20036;-83
2021/07/20 03:49:27;;;;;;;9.15;5.93;;;;;;;10.73;84.05;101888.06;5083014;28;20051;-83
2021/07/20 03:51:58;;;;;;;9.65;5.97;;;;;;;10.80;84.25;101888.84;5084123;28;20027;-83
2021/07/20 03:54:26;;;;;;;10.98;5.43;;;;;;;10.88;84.39;101888.53;5104860;28;20106;-82
2021/07/20 03:56:53;;;;;;;11.43;6.07;;;;;;;10.92;84.50;101884.38;5087802;28;20028;-83
2021/07/20 03:59:20;;;;;;;15.07;5.95;;;;;;;10.97;84.58;101883.72;5084899;28;20053;-83
2021/07/20 04:01:48;;;;;;;14.63;6.60;;;;;;;10.98;84.76;101883.50;5086109;28;20497;-83
2021/07/20 04:04:17;;;;;;;11.75;5.97;;;;;;;11.01;84.50;101883.03;5085321;28;20028;-83
2021/07/20 04:06:45;;;;;;;11.30;6.40;;;;;;;11.06;84.91;101880.50;5101324;28;20027;-82
2021/07/20 04:09:12;;;;;;;13.40;7.13;;;;;;;11.09;84.74;101885.41;5090557;28;20036;-82
2021/07/20 04:11:39;;;;;;;11.93;5.75;;;;;;;11.13;84.68;101883.94;5090174;28;20039;-83
2021/07/20 04:14:06;;;;;;;9.18;6.20;;;;;;;11.13;84.94;101869.69;5086654;28;20023;-83
2021/07/20 04:16:32;;;;;;;9.93;6.07;;;;;;;11.22;84.65;101875.59;5087930;28;20569;-83
2021/07/20 04:18:58;;;;;;;11.50;6.03;;;;;;;11.28;84.42;101883.53;5108779;28;20084;-83
2021/07/20 04:21:24;;;;;;;10.98;6.30;;;;;;;11.32;84.72;101878.56;5085191;28;20358;-83
2021/07/20 04:23:50;;;;;;;11.75;6.88;;;;;;;11.34;84.52;101879.16;5095310;28;20031;-82
2021/07/20 04:26:17;;;;;;;14.45;6.38;;;;;;;11.44;84.10;101879.44;5087785;28;20481;-83
2021/07/20 04:28:44;;;;;;;11.00;6.38;;;;;;;11.49;83.97;101877.72;5087676;28;20470;-83
2021/07/20 04:31:10;;;;;;;12.10;6.53;;;;;;;11.58;83.95;101883.59;5087060;28;20453;-83
2021/07/20 04:33:37;;;;;;;10.70;6.63;;;;;;;11.72;83.58;101881.53;5087262;28;20058;-83
2021/07/20 04:36:04;;;;;;;13.52;7.45;;;;;;;11.77;83.63;101884.34;5102289;28;20066;-83
2021/07/20 04:38:36;;;;;;;11.95;7.20;;;;;;;11.85;83.90;101888.59;5093212;28;20054;-83
2021/07/20 04:41:02;;;;;;;11.52;7.22;;;;;;;11.89;84.09;101893.31;5092311;28;20789;-83
2021/07/20 04:43:29;;;;;;;12.38;6.53;;;;;;;11.96;83.95;101890.53;5085523;28;20076;-83
2021/07/20 04:45:56;;;;;;;10.15;6.45;;;;;;;12.00;83.92;101892.50;5085825;28;20061;-83
2021/07/20 04:48:22;;;;;;;16.25;7.72;;;;;;;12.07;83.57;101889.75;5080192;28;21864;-83
2021/07/20 04:50:50;;;;;;;17.77;7.47;;;;;;;12.18;83.60;101888.94;5106481;28;20516;-83
2021/07/20 04:53:16;;;;;;;21.63;7.53;;;;;;;12.31;83.37;101891.41;5084303;28;20024;-83
2021/07/20 04:55:44;;;;;;;11.15;7.68;;;;;;;12.50;83.17;101894.81;5083715;28;20595;-83
2021/07/20 04:58:10;;;;;;;12.10;7.57;;;;;;;12.71;82.92;101894.25;5088611;28;20055;-83
2021/07/20 05:00:36;;;;;;;13.43;8.25;;;;;;;12.91;82.59;101895.75;5081206;28;20074;-83
2021/07/20 05:03:04;;;;;;;16.55;9.02;;;;;;;13.11;82.22;101895.41;5079242;28;20053;-83
2021/07/20 05:05:32;;;;;;;13.65;7.32;;;;;;;13.22;82.12;101897.25;5106536;28;20023;-83
2021/07/20 05:08:00;;;;;;;13.55;7.78;;;;;;;13.30;82.21;101899.59;5080781;28;20023;-83
2021/07/20 05:10:26;;;;;;;11.20;7.88;;;;;;;13.36;82.15;101900.50;5090332;28;20034;-83
2021/07/20 05:12:51;;;;;;;15.00;8.48;;;;;;;13.47;82.01;101903.19;5085014;28;20031;-83
2021/07/20 05:15:19;;;;;;;18.13;9.07;;;;;;;13.65;82.19;101898.66;5089956;28;20026;-83
2021/07/20 05:17:46;;;;;;;11.07;7.65;;;;;;;13.85;81.95;101888.28;5102255;27;20032;-83
2021/07/20 05:20:16;;;;;;;12.30;7.38;;;;;;;14.12;81.35;101893.84;5103227;28;20477;-86
2021/07/20 05:22:43;;;;;;;14.77;8.50;;;;;;;14.35;81.12;101895.56;5084937;28;20035;-85
2021/07/20 05:25:10;;;;;;;11.90;7.97;;;;;;;14.60;80.25;101889.81;5090631;28;20089;-85
2021/07/20 05:27:38;;;;;;;13.40;8.48;;;;;;;14.77;80.79;101893.28;5090014;28;20032;-85
2021/07/20 05:30:08;;;;;;;12.65;6.75;;;;;;;15.00;79.39;101894.94;5088818;28;20489;-86
2021/07/20 05:32:40;;;;;;;11.73;6.72;;;;;;;15.19;79.13;101896.28;5088844;28;20023;-86
2021/07/20 05:35:09;;;;;;;10.05;6.25;;;;;;;15.37;78.33;101895.16;5091074;28;20386;-85
2021/07/20 05:37:36;;;;;;;13.35;6.45;;;;;;;15.57;77.93;101897.25;5090196;28;20035;-85
2021/07/20 05:40:04;;;;;;;17.40;6.57;;;;;;;15.71;77.60;101901.25;5085943;28;20020;-84
2021/07/20 05:42:31;;;;;;;14.35;6.88;;;;;;;15.97;77.09;101895.00;5086459;28;20063;-85
2021/07/20 05:44:57;;;;;;;18.67;6.20;;;;;;;16.20;76.33;101901.19;5084401;28;20020;-84
2021/07/20 05:47:24;;;;;;;15.85;6.15;;;;;;;16.33;75.51;101898.84;5090684;28;20693;-85
2021/07/20 05:49:49;;;;;;;13.02;6.20;;;;;;;16.44;75.16;101888.91;5105472;28;20063;-85
2021/07/20 05:52:16;;;;;;;13.82;6.78;;;;;;;16.59;74.94;101890.91;5088383;28;20046;-86
2021/07/20 05:54:46;;;;;;;12.90;6.78;;;;;;;16.85;74.17;101892.72;5103787;28;20049;-86
2021/07/20 05:57:12;;;;;;;13.25;5.90;;;;;;;16.66;73.42;101893.38;5088396;28;20028;-84
2021/07/20 05:59:39;;;;;;;11.52;5.10;;;;;;;16.97;74.02;101889.81;5085053;28;20050;-85
2021/07/20 06:02:11;;;;;;;10.38;5.57;;;;;;;17.03;72.12;101885.25;5089081;28;20020;-84
2021/07/20 06:04:38;;;;;;;9.20;4.72;;;;;;;17.26;72.47;101886.72;5085587;28;20026;-85
2021/07/20 06:07:09;;;;;;;8.85;4.80;;;;;;;17.32;71.56;101889.16;5085290;28;20504;-86
2021/07/20 06:09:35;;;;;;;6.78;4.20;;;;;;;17.45;71.28;101893.28;5101253;28;20112;-85
2021/07/20 06:12:04;;;;;;;10.18;4.55;;;;;;;17.36;70.31;101890.25;5106025;28;20051;-85
2021/07/20 06:14:31;;;;;;;7.15;4.15;;;;;;;17.50;69.87;101896.81;5081386;28;20485;-85
2021/07/20 06:16:57;;;;;;;9.68;4.38;;;;;;;17.83;69.34;101897.47;5088612;28;20023;-84
2021/07/20 06:19:23;;;;;;;6.97;3.50;;;;;;;18.11;68.97;101901.56;5082243;28;20020;-85
2021/07/20 06:21:49;;;;;;;10.20;3.65;;;;;;;18.37;66.96;101905.09;5082615;28;20031;-85
2021/07/20 06:24:15;;;;;;;6.75;3.30;;;;;;;18.48;66.87;101908.59;5096461;28;20042;-85
2021/07/20 06:26:42;;;;;;;5.65;3.63;;;;;;;18.38;64.76;101912.16;5079665;28;20024;-84
2021/07/20 06:29:09;;;;;;;9.48;3.67;;;;;;;18.55;65.23;101903.72;5083865;28;20465;-85
2021/07/20 06:31:39;;;;;;;6.47;3.03;;;;;;;18.54;64.15;101905.63;5082245;28;20040;-86
2021/07/20 06:34:05;;;;;;;8.38;3.55;;;;;;;18.58;64.06;101909.41;5085126;28;20055;-86
2021/07/20 06:36:34;;;;;;;6.50;3.25;;;;;;;18.97;64.31;101903.41;5098845;28;20102;-86
2021/07/20 06:38:59;;;;;;;5.88;3.25;;;;;;;19.19;63.10;101916.63;5085279;28;20020;-84
2021/07/20 06:41:25;;;;;;;9.20;3.67;;;;;;;19.09;63.35;101916.69;5081304;28;20059;-85
2021/07/20 06:43:52;;;;;;;6.60;2.95;;;;;;;19.15;62.07;101915.56;5082286;28;20035;-85
2021/07/20 06:46:23;;;;;;;9.45;3.20;;;;;;;19.23;61.99;101917.72;5081344;28;20114;-86
2021/07/20 06:48:49;;;;;;;7.65;2.70;;;;;;;19.21;59.73;101912.56;5101401;28;20123;-86
2021/07/20 06:52:10;;;;;;;9.07;3.13;;;;;;;18.89;58.03;101921.09;5086823;28;20114;-92
2021/07/20 06:54:56;;;;;;;3.78;2.50;;;;;;;19.58;58.35;101919.50;5005116;28;20116;-89
2021/07/20 06:57:23;;;;;;;6.90;2.08;;;;;;;19.50;54.70;101918.13;5069267;28;20504;-91
2021/07/20 06:59:51;;;;;;;6.03;2.67;;;;;;;19.38;54.71;101924.97;5106872;28;20067;-90
2021/07/20 07:02:20;;;;;;;7.30;2.22;;;;;;;19.70;55.82;101917.22;5091298;28;20030;-91
2021/07/20 07:05:17;;;;;;;4.25;2.35;;;;;;;19.63;55.24;101924.91;5086405;28;20114;-91
2021/07/20 07:07:47;;;;;;;5.80;2.47;;;;;;;19.66;54.74;101923.53;5098925;28;20193;-89
2021/07/20 07:10:14;;;;;;;6.32;2.33;;;;;;;19.75;53.26;101924.53;5086891;28;20032;-90
2021/07/20 07:12:45;;;;;;;6.70;2.15;;;;;;;20.09;54.82;101919.16;5086392;28;20750;-90
2021/07/20 07:15:26;;;;;;;6.55;2.22;;;;;;;20.46;54.07;101918.59;5089737;28;20024;-91
2021/07/20 07:17:52;;;;;;;4.07;1.80;;;;;;;20.35;49.57;101915.16;5091946;28;20113;-89
2021/07/20 07:20:25;;;;;;;5.78;1.60;;;;;;;20.57;49.54;101908.44;5088803;28;20023;-87
2021/07/20 07:22:53;;;;;;;3.03;1.48;;;;;;;20.67;46.58;101911.09;5084966;28;20084;-87
2021/07/20 07:25:19;;;;;;;3.72;1.80;;;;;;;20.56;45.68;101918.53;5090355;28;20030;-89
2021/07/20 07:28:09;;;;;;;2.80;1.42;;;;;;;20.40;46.32;101919.72;5079831;28;20081;-89
2021/07/20 07:30:41;;;;;;;3.67;2.00;;;;;;;20.72;46.50;101917.28;5087492;28;20039;-90
2021/07/20 07:33:07;;;;;;;3.15;1.80;;;;;;;20.96;47.10;101911.84;5085956;28;20022;-87
2021/07/20 07:35:42;;;;;;;3.85;1.90;;;;;;;20.84;46.11;101913.38;5089361;28;20020;-88
2021/07/20 07:38:11;;;;;;;3.55;1.70;;;;;;;20.70;45.83;101916.75;5085417;28;20024;-88
2021/07/20 07:40:40;;;;;;;3.58;1.60;;;;;;;21.10;46.06;101910.06;5089187;28;20016;-86
2021/07/20 07:43:07;;;;;;;3.17;1.33;;;;;;;21.23;44.72;101910.47;5089468;28;20032;-88
2021/07/20 07:45:33;;;;;;;4.85;1.40;;;;;;;20.68;43.94;101916.25;5088185;28;20108;-87
2021/07/20 07:48:01;;;;;;;4.28;1.40;;;;;;;20.99;44.67;101910.44;5084968;28;20024;-90
2021/07/20 07:50:30;;;;;;;2.40;1.23;;;;;;;21.35;44.12;101913.59;5089296;28;20095;-88
2021/07/20 07:52:57;;;;;;;2.35;1.35;;;;;;;21.47;41.93;101918.63;5088951;28;20019;-89
2021/07/20 07:55:24;;;;;;;4.15;1.25;;;;;;;21.60;42.03;101920.63;5088176;28;20077;-88
2021/07/20 07:57:51;;;;;;;3.53;1.50;;;;;;;21.09;41.36;101921.25;5092009;28;20034;-88
2021/07/20 08:00:17;;;;;;;1.83;1.30;;;;;;;21.21;41.54;101913.47;5084999;28;20028;-88
2021/07/20 08:02:51;;;;;;;5.00;1.83;;;;;;;21.53;40.76;101909.25;5079463;28;20027;-87
2021/07/20 08:05:24;;;;;;;1.88;1.30;;;;;;;21.88;39.90;101911.47;5088451;28;20388;-91
2021/07/20 08:07:50;;;;;;;3.03;1.70;;;;;;;22.06;39.81;101911.78;5087179;28;20032;-90
2021/07/20 08:10:19;;;;;;;47.53;31.48;;;;;;;22.20;40.85;101907.19;5087377;28;20031;-90
2021/07/20 08:12:46;;;;;;;2.15;1.42;;;;;;;22.06;39.95;101911.78;5090274;28;20049;-90
2021/07/20 08:15:17;;;;;;;4.05;1.60;;;;;;;22.02;40.05;101917.00;5090818;28;20047;-91
2021/07/20 08:17:47;;;;;;;4.22;1.30;;;;;;;21.59;39.82;101911.66;5094477;28;20073;-91
2021/07/20 08:20:17;;;;;;;2.60;1.52;;;;;;;21.72;39.85;101923.72;5092257;28;20024;-92
2021/07/20 08:22:43;;;;;;;2.08;1.55;;;;;;;21.89;41.28;101913.09;5092968;28;20378;-91
2021/07/20 08:25:10;;;;;;;3.83;1.60;;;;;;;21.42;40.78;101920.31;5094642;28;20080;-90
2021/07/20 08:27:47;;;;;;;4.32;1.83;;;;;;;21.44;41.37;101916.50;5089818;28;20023;-90
2021/07/20 08:30:15;;;;;;;2.70;1.40;;;;;;;21.62;41.91;101916.50;5090446;28;20051;-91
2021/07/20 08:33:01;;;;;;;2.80;1.60;;;;;;;21.82;38.91;101911.84;5090248;28;20105;-91
2021/07/20 08:35:30;;;;;;;3.65;1.58;;;;;;;22.33;39.64;101913.81;5085314;28;20126;-90
2021/07/20 08:38:01;;;;;;;2.13;1.50;;;;;;;22.84;38.55;101916.47;5088721;28;20123;-91
2021/07/20 08:40:26;;;;;;;5.03;1.52;;;;;;;22.40;36.31;101917.78;5090407;28;20367;-90
2021/07/20 08:43:07;;;;;;;2.53;1.25;;;;;;;22.64;36.70;101916.84;5088755;28;20062;-91
2021/07/20 08:45:50;;;;;;;3.92;1.45;;;;;;;22.78;37.08;101921.19;5088477;28;20110;-89
2021/07/20 08:49:06;;;;;;;3.83;1.58;;;;;;;22.42;37.49;101923.75;5089542;28;20019;-90
2021/07/20 08:51:57;;;;;;;1.95;1.30;;;;;;;22.32;38.68;101923.94;5066244;28;20078;-91
2021/07/20 08:54:38;;;;;;;2.45;1.50;;;;;;;23.09;38.18;101924.19;5089259;28;20023;-88
2021/07/20 08:57:07;;;;;;;5.43;1.58;;;;;;;23.72;37.20;101914.41;5080713;28;20639;-90
2021/07/20 09:00:10;;;;;;;3.20;1.50;;;;;;;23.55;36.66;101917.75;5087295;28;20019;-91
2021/07/20 09:03:04;;;;;;;7.47;2.17;;;;;;;22.68;36.12;101920.59;5092342;28;20027;-92
2021/07/20 09:05:41;;;;;;;3.30;1.75;;;;;;;23.44;38.43;101916.34;5079521;28;20032;-90
2021/07/20 09:08:17;;;;;;;3.85;1.63;;;;;;;24.07;35.94;101916.31;5089924;28;20043;-91
2021/07/20 09:10:50;;;;;;;4.10;1.77;;;;;;;24.10;35.06;101914.88;5088894;28;20020;-91
2021/07/20 09:13:19;;;;;;;3.70;1.70;;;;;;;23.97;33.01;101916.53;5106563;28;20024;-90
2021/07/20 09:15:54;;;;;;;11.05;7.03;;;;;;;24.29;32.80;101912.78;5083454;28;20016;-90
2021/07/20 09:18:40;;;;;;;3.95;1.20;;;;;;;24.01;33.85;101912.06;5081773;28;20062;-90
2021/07/20 09:21:12;;;;;;;3.20;1.52;;;;;;;24.17;33.67;101917.97;5092744;28;20543;-90
2021/07/20 09:24:17;;;;;;;2.45;1.60;;;;;;;23.70;34.01;101909.25;5089727;28;20073;-90
2021/07/20 09:26:54;;;;;;;2.40;1.58;;;;;;;23.40;34.75;101913.44;5089074;28;20028;-91
2021/07/20 09:29:25;;;;;;;3.72;1.50;;;;;;;23.52;34.19;101910.19;5092289;28;20043;-88
2021/07/20 09:32:40;;;;;;;2.63;1.20;;;;;;;23.51;33.59;101903.88;5093282;28;20024;-90
2021/07/20 09:35:20;;;;;;;3.25;1.48;;;;;;;24.32;32.78;101900.38;5080479;28;20032;-91
2021/07/20 09:38:12;;;;;;;4.93;1.48;;;;;;;23.56;33.99;101902.16;5086669;28;20102;-91
2021/07/20 09:40:59;;;;;;;4.22;1.88;;;;;;;24.36;32.19;101899.44;5083825;28;20024;-90
2021/07/20 09:43:47;;;;;;;4.43;1.38;;;;;;;24.19;33.48;101902.03;5082129;28;20024;-92
2021/07/20 09:46:56;;;;;;;3.65;1.40;;;;;;;24.24;33.32;101910.16;5074884;28;20084;-92
2021/07/20 09:52:47;;;;;;;1.63;1.23;;;;;;;25.83;32.77;101890.88;5102480;28;20039;-90
2021/07/20 09:55:33;;;;;;;6.55;1.83;;;;;;;25.86;31.80;101885.56;5105506;28;20019;-91
2021/07/20 09:58:15;;;;;;;2.55;1.50;;;;;;;26.14;32.66;101877.75;5092608;28;20031;-91
2021/07/20 10:01:17;;;;;;;2.50;1.30;;;;;;;25.52;31.58;101888.28;5083884;28;20016;-91
2021/07/20 10:04:13;;;;;;;6.22;1.70;;;;;;;26.01;31.73;101889.72;5060410;28;20501;-91
2021/07/20 10:06:56;;;;;;;3.33;1.40;;;;;;;26.32;30.62;101878.53;5085746;28;20550;-91
2021/07/20 10:09:33;;;;;;;2.15;1.35;;;;;;;26.44;30.31;101883.38;5097132;28;20031;-91
2021/07/20 10:12:15;;;;;;;3.03;1.67;;;;;;;26.10;28.72;101874.06;5089359;28;20028;-90
2021/07/20 10:15:04;;;;;;;4.10;1.67;;;;;;;25.81;28.33;101876.66;5089645;28;20706;-89
2021/07/20 10:17:56;;;;;;;6.38;1.95;;;;;;;24.18;31.11;101877.72;5083827;28;20076;-88
2021/07/20 10:20:27;;;;;;;2.17;1.73;;;;;;;24.24;30.77;101877.28;5087352;28;20056;-87
2021/07/20 10:23:17;;;;;;;3.13;1.70;;;;;;;25.06;30.71;101864.13;5102958;28;20027;-90
2021/07/20 10:25:47;;;;;;;18.85;2.72;;;;;;;25.39;30.68;101873.56;5087628;28;20062;-89
2021/07/20 10:28:28;;;;;;;2.10;1.50;;;;;;;25.37;29.72;101877.75;5085242;28;20776;-90
2021/07/20 10:31:23;;;;;;;5.90;1.88;;;;;;;25.21;30.21;101872.72;5088924;28;20038;-90
2021/07/20 10:34:03;;;;;;;5.30;1.90;;;;;;;24.18;32.22;101883.19;5079606;28;20531;-90
2021/07/20 10:36:41;;;;;;;3.20;1.60;;;;;;;24.44;32.25;101880.66;5083135;28;20019;-89
2021/07/20 10:39:10;;;;;;;11.82;6.60;;;;;;;25.00;31.27;101878.00;5086026;28;20054;-90
2021/07/20 10:41:52;;;;;;;15.70;9.02;;;;;;;25.02;32.43;101868.66;5088871;28;20028;-89
2021/07/20 10:44:47;;;;;;;2.53;2.08;;;;;;;24.25;32.20;101873.41;5089247;28;20028;-90
2021/07/20 10:47:17;;;;;;;8.27;2.33;;;;;;;24.74;32.59;101868.03;5103463;28;20089;-89
2021/07/20 10:50:04;;;;;;;8.85;2.00;;;;;;;23.87;33.63;101874.91;5087620;28;20015;-90
2021/07/20 10:53:00;;;;;;;5.45;3.58;;;;;;;23.72;33.48;101873.38;5083161;28;20058;-89
2021/07/20 10:56:04;;;;;;;2.30;1.50;;;;;;;23.93;34.92;101876.41;5087750;28;20023;-89
2021/07/20 10:58:32;;;;;;;1.23;1.13;;;;;;;24.26;34.00;101866.81;5086233;28;20020;-90
2021/07/20 11:01:10;;;;;;;3.70;1.95;;;;;;;23.97;32.49;101867.28;5085638;28;20466;-90
2021/07/20 11:04:05;;;;;;;3.97;1.40;;;;;;;23.13;34.93;101859.56;5086262;28;20499;-89
2021/07/20 11:06:46;;;;;;;;;;;;;;;;;;;;;
2021/07/20 11:09:26;;;;;;;4.03;1.70;;;;;;;22.53;35.95;101861.56;5104703;28;20034;-91
2021/07/20 11:12:01;;;;;;;5.38;1.75;;;;;;;22.06;36.86;101870.84;5087401;28;20092;-91
2021/07/20 11:14:45;;;;;;;4.72;1.60;;;;;;;22.36;36.33;101851.22;5088034;28;20020;-90
2021/07/20 11:17:17;;;;;;;3.22;1.70;;;;;;;22.77;35.84;101853.19;5088264;28;20034;-93
2021/07/20 11:19:55;;;;;;;;;;;;;;;;;;;;;
2021/07/20 11:22:22;;;;;;;3.33;1.80;;;;;;;23.92;34.53;101861.13;5116511;22;20039;-79
2021/07/20 11:24:48;;;;;;;4.28;1.90;;;;;;;24.34;33.45;101855.13;5102544;28;21949;-75
2021/07/20 11:27:19;;;;;;;6.13;2.10;;;;;;;24.78;33.27;101847.09;5099046;28;20031;-75
2021/07/20 11:29:45;;;;;;;2.20;1.90;;;;;;;24.85;32.40;101847.44;5085217;28;20034;-75
2021/07/20 11:32:18;;;;;;;2.28;1.70;;;;;;;24.34;32.37;101855.13;5100450;28;20038;-75
2021/07/20 11:34:52;;;;;;;2.85;1.60;;;;;;;24.94;32.39;101851.81;5105503;28;20034;-75
2021/07/20 11:37:23;;;;;;;2.97;1.92;;;;;;;25.47;31.00;101852.72;5079887;28;20114;-76
2021/07/20 11:39:58;;;;;;;4.03;1.98;;;;;;;25.14;31.22;101844.97;5102026;28;20617;-75
2021/07/20 11:42:35;;;;;;;2.42;1.67;;;;;;;25.61;31.67;101837.72;5099663;28;20023;-76
2021/07/20 11:45:08;;;;;;;4.57;1.88;;;;;;;25.75;30.52;101839.53;5104186;28;20401;-76
2021/07/20 11:47:42;;;;;;;2.55;1.45;;;;;;;26.09;28.83;101835.94;5081440;28;20031;-77
2021/07/20 11:50:52;;;;;;;10.37;2.13;;;;;;;26.03;30.03;101834.47;5080676;28;20020;-76
2021/07/20 11:53:44;;;;;;;3.85;1.80;;;;;;;26.54;29.50;101829.97;5098546;28;20493;-75